createdAt,value
2023-03-23T00:02:35.567Z,5.18
2023-03-23T00:05:05.436Z,5.34
2023-03-23T00:07:34.812Z,5.32
2023-03-23T00:10:05.070Z,5.25
2023-03-23T00:12:35.902Z,5.10
2023-03-23T00:15:13.474Z,5.19
2023-03-23T00:17:44.184Z,5.19
2023-03-23T00:20:13.778Z,5.19
2023-03-23T00:22:43.443Z,5.18
2023-03-23T00:25:13.029Z,5.15
2023-03-23T00:27:42.309Z,5.23
2023-03-23T00:30:15.560Z,5.24
2023-03-23T00:32:44.932Z,5.30
2023-03-23T00:35:20.555Z,5.32
2023-03-23T00:37:50.336Z,5.24
2023-03-23T00:40:19.872Z,5.26
2023-03-23T00:42:56.095Z,5.34
2023-03-23T00:45:27.820Z,5.32
2023-03-23T00:48:02.485Z,5.39
2023-03-23T00:50:38.886Z,5.29
2023-03-23T00:53:08.692Z,5.32
2023-03-23T00:55:38.173Z,5.35
2023-03-23T00:58:14.121Z,5.35
2023-03-23T01:00:45.888Z,5.37
2023-03-23T01:03:19.347Z,5.39
2023-03-23T01:05:52.427Z,5.27
2023-03-23T01:08:22.512Z,5.32
2023-03-23T01:10:52.357Z,5.35
2023-03-23T01:13:23.492Z,5.37
2023-03-23T01:15:54.961Z,5.26
2023-03-23T01:18:33.943Z,5.39
2023-03-23T01:21:08.427Z,5.35
2023-03-23T01:23:43.311Z,5.22
2023-03-23T01:26:14.413Z,5.22
2023-03-23T01:28:49.195Z,5.23
2023-03-23T01:31:22.321Z,5.20
2023-03-23T01:33:58.140Z,5.04
2023-03-23T01:36:33.136Z,5.11
2023-03-23T01:39:06.365Z,5.07
2023-03-23T01:41:37.292Z,5.04
2023-03-23T01:44:49.241Z,5.05
2023-03-23T01:47:27.350Z,4.96
2023-03-23T01:49:58.308Z,4.93
2023-03-23T01:52:32.011Z,4.89
2023-03-23T01:55:08.446Z,4.81
2023-03-23T01:57:43.745Z,4.87
2023-03-23T02:00:16.202Z,4.88
2023-03-23T02:02:55.782Z,4.89
2023-03-23T02:05:35.940Z,4.89
2023-03-23T02:08:15.474Z,4.90
2023-03-23T02:10:46.598Z,4.86
2023-03-23T02:13:21.833Z,4.83
2023-03-23T02:16:06.720Z,4.76
2023-03-23T02:18:59.504Z,4.81
2023-03-23T02:21:53.697Z,4.84
2023-03-23T02:24:57.476Z,4.80
2023-03-23T02:27:55.349Z,4.70
2023-03-23T02:30:40.302Z,4.79
2023-03-23T02:33:38.217Z,4.38
2023-03-23T02:36:20.530Z,4.75
2023-03-23T02:38:59.817Z,4.71
2023-03-23T02:41:41.881Z,4.66
2023-03-23T02:44:13.500Z,4.64
2023-03-23T02:46:44.859Z,4.53
2023-03-23T02:49:23.737Z,4.50
2023-03-23T02:51:54.705Z,4.19
2023-03-23T02:54:26.176Z,4.10
2023-03-23T02:57:01.525Z,3.92
2023-03-23T02:59:34.610Z,4.10
2023-03-23T03:02:10.188Z,4.11
2023-03-23T03:04:43.837Z,3.99
2023-03-23T03:07:49.062Z,3.97
2023-03-23T03:10:27.604Z,3.91
2023-03-23T03:13:12.050Z,3.87
2023-03-23T03:15:47.913Z,3.70
2023-03-23T03:18:30.025Z,3.76
2023-03-23T03:23:50.121Z,3.59
2023-03-23T03:26:21.452Z,3.57
2023-03-23T03:28:56.531Z,3.54
2023-03-23T03:31:36.692Z,3.48
2023-03-23T03:34:06.361Z,3.52
2023-03-23T03:36:43.341Z,3.52
2023-03-23T03:39:18.120Z,3.62
2023-03-23T03:41:47.470Z,3.73
2023-03-23T03:44:17.172Z,3.68
2023-03-23T03:46:46.618Z,3.63
2023-03-23T03:49:16.480Z,3.80
2023-03-23T03:51:47.959Z,3.83
2023-03-23T03:54:23.964Z,3.86
2023-03-23T03:56:58.283Z,3.92
2023-03-23T03:59:42.120Z,3.97
2023-03-23T04:02:30.347Z,3.82
2023-03-23T04:04:59.859Z,4.05
2023-03-23T04:07:32.046Z,3.93
2023-03-23T04:10:09.620Z,4.02
2023-03-23T04:18:17.864Z,3.80
2023-03-23T04:20:57.859Z,3.75
2023-03-23T04:23:36.382Z,3.73
2023-03-23T04:28:47.470Z,3.68
2023-03-23T04:31:35.421Z,3.67
2023-03-23T04:34:39.397Z,3.71
2023-03-23T04:37:09.370Z,3.72
2023-03-23T04:39:46.004Z,3.70
2023-03-23T04:42:17.518Z,3.75
2023-03-23T04:45:13.672Z,3.77
2023-03-23T04:47:58.557Z,3.88
2023-03-23T04:50:38.445Z,3.87
2023-03-23T04:53:27.282Z,3.91
2023-03-23T04:56:01.794Z,3.75
2023-03-23T04:58:44.515Z,4.03
2023-03-23T05:01:20.474Z,4.22
2023-03-23T05:04:22.446Z,4.35
2023-03-23T05:07:24.013Z,4.55
2023-03-23T05:09:56.061Z,4.55
2023-03-23T05:12:31.852Z,4.66
2023-03-23T05:15:12.600Z,4.81
2023-03-23T05:17:44.572Z,4.88
2023-03-23T05:20:21.459Z,4.88
2023-03-23T05:22:52.707Z,4.87
2023-03-23T05:25:27.425Z,4.83
2023-03-23T05:28:11.445Z,4.99
2023-03-23T05:30:54.505Z,4.95
2023-03-23T05:33:24.776Z,5.03
2023-03-23T05:36:11.433Z,5.17
2023-03-23T05:39:00.789Z,5.22
2023-03-23T05:44:20.686Z,5.50
2023-03-23T05:46:55.849Z,5.65
2023-03-23T05:49:25.297Z,5.69
2023-03-23T05:51:56.307Z,5.76
2023-03-23T05:54:31.403Z,5.84
2023-03-23T05:57:00.965Z,5.83
2023-03-23T06:00:12.365Z,5.92
2023-03-23T06:02:45.250Z,6.03
2023-03-23T06:05:26.620Z,6.09
2023-03-23T06:07:57.986Z,6.07
2023-03-23T06:13:14.245Z,6.38
2023-03-23T06:15:58.676Z,6.37
2023-03-23T06:18:49.050Z,6.56
2023-03-23T06:21:32.603Z,6.66
2023-03-23T06:24:10.909Z,6.70
2023-03-23T06:26:44.796Z,6.78
2023-03-23T06:29:25.077Z,6.85
2023-03-23T06:32:03.658Z,6.87
2023-03-23T06:34:35.495Z,6.78
2023-03-23T06:37:11.130Z,6.94
2023-03-23T06:39:54.779Z,6.95
2023-03-23T06:42:43.330Z,6.91
2023-03-23T06:48:31.004Z,7.15
2023-03-23T06:51:00.696Z,7.24
2023-03-23T06:53:31.649Z,7.48
2023-03-23T06:56:02.085Z,7.45
2023-03-23T06:58:33.417Z,7.58
2023-03-23T07:01:03.009Z,7.54
2023-03-23T07:03:38.930Z,7.53
2023-03-23T07:06:14.389Z,7.42
2023-03-23T07:08:55.836Z,7.60
2023-03-23T07:11:29.285Z,7.55
2023-03-23T07:14:02.352Z,7.63
2023-03-23T07:16:38.163Z,7.66
2023-03-23T07:19:19.833Z,7.69
2023-03-23T07:21:55.007Z,7.69
2023-03-23T07:24:25.656Z,7.74
2023-03-23T07:27:12.487Z,7.77
2023-03-23T07:29:43.074Z,7.65
2023-03-23T07:32:25.809Z,7.93
2023-03-23T07:34:57.567Z,8.00
2023-03-23T07:37:33.716Z,8.05
2023-03-23T07:40:15.345Z,7.94
2023-03-23T07:42:54.552Z,8.17
2023-03-23T07:45:43.416Z,8.26
2023-03-23T07:48:21.305Z,8.34
2023-03-23T07:50:57.838Z,8.39
2023-03-23T07:56:19.648Z,8.52
2023-03-23T07:59:01.370Z,8.60
2023-03-23T08:01:35.915Z,8.63
2023-03-23T08:04:28.404Z,8.67
2023-03-23T08:07:28.135Z,8.69
2023-03-23T08:10:00.489Z,8.67
2023-03-23T08:12:43.917Z,8.59
2023-03-23T08:15:42.472Z,8.68
2023-03-23T08:18:25.926Z,8.64
2023-03-23T08:21:13.868Z,8.61
2023-03-23T08:27:00.363Z,8.62
2023-03-23T08:29:48.728Z,8.70
2023-03-23T08:32:45.054Z,8.57
2023-03-23T08:35:45.129Z,8.80
2023-03-23T08:38:38.223Z,8.78
2023-03-23T08:41:27.837Z,8.91
2023-03-23T08:44:11.008Z,8.94
2023-03-23T08:47:15.452Z,8.88
2023-03-23T08:50:15.676Z,9.09
2023-03-23T08:53:14.622Z,9.17
2023-03-23T08:55:50.137Z,9.21
2023-03-23T08:58:57.477Z,9.29
2023-03-23T09:01:40.825Z,9.34
2023-03-23T09:04:34.041Z,9.34
2023-03-23T09:07:42.491Z,9.34
2023-03-23T09:10:12.578Z,9.41
2023-03-23T09:12:48.863Z,9.51
2023-03-23T09:15:27.210Z,9.55
2023-03-23T09:18:02.482Z,9.59
2023-03-23T09:20:32.534Z,9.49
2023-03-23T09:23:07.355Z,9.63
2023-03-23T09:25:36.586Z,9.58
2023-03-23T09:28:06.380Z,9.65
2023-03-23T09:30:53.066Z,9.67
2023-03-23T09:33:22.727Z,9.72
2023-03-23T09:35:52.069Z,9.70
2023-03-23T09:38:22.492Z,9.82
2023-03-23T09:40:55.106Z,9.80
2023-03-23T09:43:40.375Z,9.91
2023-03-23T09:46:24.544Z,9.78
2023-03-23T09:49:08.234Z,9.94
2023-03-23T09:51:45.908Z,9.77
2023-03-23T09:54:22.253Z,9.94
2023-03-23T09:56:52.870Z,10.02
2023-03-23T09:59:27.057Z,10.08
2023-03-23T10:02:02.130Z,10.11
2023-03-23T10:04:38.439Z,10.14
2023-03-23T10:09:57.263Z,10.26
2023-03-23T10:12:37.122Z,10.22
2023-03-23T10:15:16.889Z,10.33
2023-03-23T10:17:55.750Z,10.32
2023-03-23T10:20:32.895Z,10.34
2023-03-23T10:23:12.387Z,10.29
2023-03-23T10:25:46.147Z,10.36
2023-03-23T10:28:20.650Z,10.39
2023-03-23T10:30:56.241Z,10.40
2023-03-23T10:36:22.613Z,10.47
2023-03-23T10:38:56.718Z,10.47
2023-03-23T10:41:26.724Z,10.64
2023-03-23T10:43:56.683Z,10.65
2023-03-23T10:46:44.092Z,10.66
2023-03-23T10:49:23.365Z,10.79
2023-03-23T10:52:00.425Z,10.93
2023-03-23T10:54:41.662Z,11.00
2023-03-23T10:57:25.153Z,11.17
2023-03-23T11:00:06.738Z,11.19
2023-03-23T11:02:41.519Z,11.45
2023-03-23T11:05:24.863Z,11.49
2023-03-23T11:07:57.852Z,11.46
2023-03-23T11:10:34.828Z,11.59
2023-03-23T11:13:05.028Z,11.54
2023-03-23T11:15:37.066Z,11.76
2023-03-23T11:18:08.380Z,11.92
2023-03-23T11:20:48.647Z,12.04
2023-03-23T11:23:27.264Z,12.13
2023-03-23T11:26:03.205Z,12.18
2023-03-23T11:28:39.852Z,12.18
2023-03-23T11:31:15.101Z,12.35
2023-03-23T11:34:06.310Z,12.40
2023-03-23T11:36:40.315Z,12.35
2023-03-23T11:39:23.759Z,12.35
2023-03-23T11:42:06.819Z,12.51
2023-03-23T11:44:46.741Z,12.66
2023-03-23T11:47:35.160Z,12.84
2023-03-23T11:50:16.760Z,13.05
2023-03-23T11:53:03.584Z,13.17
2023-03-23T11:55:39.499Z,13.39
2023-03-23T11:58:15.536Z,13.60
2023-03-23T12:00:52.400Z,13.73
2023-03-23T12:03:38.954Z,13.70
2023-03-23T12:06:16.046Z,13.59
2023-03-23T12:09:12.330Z,13.48
2023-03-23T12:11:55.874Z,13.48
2023-03-23T12:14:38.817Z,13.45
2023-03-23T12:17:20.707Z,13.43
2023-03-23T12:19:58.869Z,13.39
2023-03-23T12:22:43.105Z,13.56
2023-03-23T12:25:35.861Z,13.68
2023-03-23T12:28:13.639Z,13.78
2023-03-23T12:33:33.164Z,13.75
2023-03-23T12:36:23.864Z,13.66
2023-03-23T12:39:31.433Z,13.63
2023-03-23T12:42:11.700Z,13.34
2023-03-23T12:44:48.627Z,13.44
2023-03-23T12:52:50.634Z,13.07
2023-03-23T12:55:30.758Z,13.00
2023-03-23T12:58:04.825Z,12.96
2023-03-23T13:00:39.453Z,12.96
2023-03-23T13:03:17.664Z,13.09
2023-03-23T13:08:37.884Z,13.10
2023-03-23T13:11:19.896Z,13.10
2023-03-23T13:14:07.882Z,13.04
2023-03-23T13:16:45.825Z,13.13
2023-03-23T13:19:29.037Z,13.05
2023-03-23T13:22:05.176Z,12.97
2023-03-23T13:24:41.375Z,12.94
2023-03-23T13:27:12.785Z,12.86
2023-03-23T13:29:47.778Z,12.79
2023-03-23T13:32:21.931Z,12.77
2023-03-23T13:34:51.949Z,12.70
2023-03-23T13:37:27.647Z,12.64
2023-03-23T13:40:01.885Z,12.56
2023-03-23T13:42:35.998Z,12.59
2023-03-23T13:45:21.911Z,12.51
2023-03-23T13:48:06.731Z,12.62
2023-03-23T13:50:53.954Z,12.36
2023-03-23T13:53:33.310Z,12.43
2023-03-23T13:56:20.470Z,12.39
2023-03-23T13:58:52.560Z,12.20
2023-03-23T14:01:41.808Z,12.09
2023-03-23T14:04:18.440Z,12.09
2023-03-23T14:06:54.435Z,12.01
2023-03-23T14:09:40.736Z,11.95
2023-03-23T14:12:20.606Z,11.92
2023-03-23T14:15:02.529Z,11.89
2023-03-23T14:17:34.350Z,11.81
2023-03-23T14:20:04.353Z,11.67
2023-03-23T14:22:43.410Z,11.51
2023-03-23T14:25:15.707Z,11.34
2023-03-23T14:27:48.557Z,11.31
2023-03-23T14:30:20.974Z,11.08
2023-03-23T14:32:55.843Z,11.06
2023-03-23T14:35:39.337Z,11.14
2023-03-23T14:38:17.308Z,11.12
2023-03-23T14:40:47.521Z,11.11
2023-03-23T14:43:23.048Z,11.13
2023-03-23T14:45:55.611Z,10.93
2023-03-23T14:48:25.453Z,10.80
2023-03-23T14:50:58.738Z,10.69
2023-03-23T14:53:34.267Z,10.56
2023-03-23T14:56:15.152Z,10.46
2023-03-23T14:58:51.207Z,10.44
2023-03-23T15:01:22.762Z,10.45
2023-03-23T15:04:08.299Z,10.46
2023-03-23T15:06:39.320Z,10.39
2023-03-23T15:09:13.144Z,10.43
2023-03-23T15:11:43.945Z,10.49
2023-03-23T15:14:23.700Z,10.44
2023-03-23T15:17:01.804Z,10.41
2023-03-23T15:19:37.321Z,10.40
2023-03-23T15:22:30.294Z,10.39
2023-03-23T15:25:11.633Z,10.39
2023-03-23T15:27:50.016Z,10.37
2023-03-23T15:33:14.401Z,10.33
2023-03-23T15:35:51.775Z,10.29
2023-03-23T15:38:24.560Z,10.13
2023-03-23T15:40:55.687Z,10.15
2023-03-23T15:43:27.888Z,10.06
2023-03-23T15:46:09.180Z,9.95
2023-03-23T15:49:00.386Z,10.05
2023-03-23T15:51:32.990Z,9.99
2023-03-23T15:54:05.718Z,9.96
2023-03-23T15:56:38.377Z,9.92
2023-03-23T15:59:15.198Z,9.88
2023-03-23T16:01:48.268Z,9.89
2023-03-23T16:04:22.486Z,9.78
2023-03-23T16:06:59.315Z,9.87
2023-03-23T16:09:38.927Z,9.84
2023-03-23T16:12:09.871Z,9.80
2023-03-23T16:14:39.158Z,9.77
2023-03-23T16:17:18.562Z,9.75
2023-03-23T16:19:48.026Z,9.70
2023-03-23T16:22:18.747Z,9.66
2023-03-23T16:24:51.135Z,9.65
2023-03-23T16:27:26.190Z,9.62
2023-03-23T16:30:04.497Z,9.59
2023-03-23T16:35:05.563Z,9.51
2023-03-23T16:37:45.907Z,9.50
2023-03-23T16:40:16.477Z,9.49
2023-03-23T16:42:57.553Z,9.44
2023-03-23T16:45:27.494Z,9.42
2023-03-23T16:48:01.301Z,9.41
2023-03-23T16:50:31.520Z,9.38
2023-03-23T16:53:00.822Z,9.37
2023-03-23T16:55:31.375Z,9.35
2023-03-23T16:58:15.607Z,9.16
2023-03-23T17:00:49.139Z,9.18
2023-03-23T17:03:21.367Z,9.08
2023-03-23T17:08:31.836Z,8.92
2023-03-23T17:11:01.226Z,8.92
2023-03-23T17:13:30.889Z,8.83
2023-03-23T17:16:00.302Z,8.88
2023-03-23T17:18:43.147Z,8.94
2023-03-23T17:21:12.326Z,8.89
2023-03-23T17:23:41.451Z,8.84
2023-03-23T17:26:11.135Z,8.66
2023-03-23T17:28:40.432Z,8.62
2023-03-23T17:31:09.952Z,8.60
2023-03-23T17:33:41.242Z,8.60
2023-03-23T17:36:11.077Z,8.55
2023-03-23T17:38:40.403Z,8.53
2023-03-23T17:41:11.192Z,8.30
2023-03-23T17:43:42.210Z,8.34
2023-03-23T17:46:12.749Z,8.24
2023-03-23T17:48:44.089Z,8.17
2023-03-23T17:51:13.428Z,8.11
2023-03-23T17:53:42.596Z,8.04
2023-03-23T17:56:12.392Z,7.89
2023-03-23T17:58:41.683Z,7.91
2023-03-23T18:01:11.054Z,7.98
2023-03-23T18:03:40.553Z,7.98
2023-03-23T18:06:14.747Z,7.96
2023-03-23T18:08:44.500Z,7.98
2023-03-23T18:11:14.022Z,7.98
2023-03-23T18:13:43.422Z,7.91
2023-03-23T18:16:12.919Z,8.04
2023-03-23T18:18:42.347Z,8.09
2023-03-23T18:21:14.704Z,8.11
2023-03-23T18:23:58.835Z,8.00
2023-03-23T18:26:30.448Z,8.03
2023-03-23T18:31:39.625Z,8.17
2023-03-23T18:34:09.350Z,8.12
2023-03-23T18:36:40.527Z,8.07
2023-03-23T18:39:10.352Z,8.19
2023-03-23T18:41:39.530Z,8.18
2023-03-23T18:44:21.010Z,8.15
2023-03-23T18:46:50.340Z,8.16
2023-03-23T18:49:19.794Z,8.09
2023-03-23T18:51:51.135Z,8.11
2023-03-23T18:54:20.361Z,8.04
2023-03-23T18:57:00.475Z,7.94
2023-03-23T18:59:33.511Z,7.90
2023-03-23T19:02:13.056Z,7.88
2023-03-23T19:04:42.796Z,7.76
2023-03-23T19:07:25.070Z,7.86
2023-03-23T19:09:54.330Z,7.77
2023-03-23T19:12:23.528Z,7.62
2023-03-23T19:14:59.616Z,7.63
2023-03-23T19:17:28.814Z,7.61
2023-03-23T19:20:03.148Z,7.60
2023-03-23T19:22:34.872Z,7.58
2023-03-23T19:25:04.203Z,7.51
2023-03-23T19:28:05.780Z,7.46
2023-03-23T19:30:33.007Z,7.39
2023-03-23T19:33:02.383Z,7.20
2023-03-23T19:35:44.542Z,7.37
2023-03-23T19:38:16.040Z,7.40
2023-03-23T19:40:57.338Z,7.42
2023-03-23T19:43:43.656Z,7.49
2023-03-23T19:46:18.764Z,7.55
2023-03-23T19:48:48.645Z,7.68
2023-03-23T19:51:20.832Z,7.72
2023-03-23T19:53:52.394Z,7.81
2023-03-23T19:56:24.617Z,7.81
2023-03-23T19:59:01.065Z,7.67
2023-03-23T20:01:30.591Z,7.98
2023-03-23T20:04:07.041Z,8.04
2023-03-23T20:09:20.754Z,7.98
2023-03-23T20:11:56.089Z,8.14
2023-03-23T20:14:25.884Z,8.17
2023-03-23T20:16:55.255Z,8.17
2023-03-23T20:19:24.958Z,8.23
2023-03-23T20:24:38.391Z,8.21
2023-03-23T20:27:08.340Z,8.27
2023-03-23T20:29:37.503Z,8.27
2023-03-23T20:32:12.402Z,8.17
2023-03-23T20:34:41.768Z,8.26
2023-03-23T20:37:15.684Z,8.16
2023-03-23T20:39:47.701Z,8.14
2023-03-23T20:42:17.766Z,8.28
2023-03-23T20:44:47.040Z,8.26
2023-03-23T20:47:16.585Z,8.27
2023-03-23T20:49:53.370Z,8.26
2023-03-23T20:52:28.609Z,8.27
2023-03-23T20:55:00.533Z,8.11
2023-03-23T20:57:30.174Z,8.22
2023-03-23T21:00:06.424Z,8.19
2023-03-23T21:02:35.943Z,8.19
2023-03-23T21:05:05.670Z,8.18
2023-03-23T21:07:36.640Z,8.14
2023-03-23T21:10:08.358Z,8.14
2023-03-23T21:12:43.171Z,8.18
2023-03-23T21:15:12.314Z,8.14
2023-03-23T21:17:41.556Z,8.12
2023-03-23T21:20:23.513Z,8.18
2023-03-23T21:22:52.832Z,8.25
2023-03-23T21:25:34.015Z,8.27
2023-03-23T21:28:06.384Z,8.07
2023-03-23T21:30:35.791Z,8.20
2023-03-23T21:33:06.094Z,7.98
2023-03-23T21:35:42.990Z,8.16
2023-03-23T21:38:14.505Z,8.16
2023-03-23T21:40:51.365Z,8.15
2023-03-23T21:43:26.892Z,8.13
2023-03-23T21:46:02.527Z,8.13
2023-03-23T21:48:38.154Z,8.05
2023-03-23T21:51:08.867Z,8.12
2023-03-23T21:53:38.291Z,8.14
2023-03-23T21:56:16.256Z,8.16
2023-03-23T21:58:45.531Z,8.14
2023-03-23T22:01:15.842Z,8.13
2023-03-23T22:06:25.972Z,8.08
2023-03-23T22:08:56.633Z,8.07
2023-03-23T22:11:32.868Z,8.24
2023-03-23T22:14:08.784Z,8.11
2023-03-23T22:16:38.879Z,8.20
2023-03-23T22:19:08.605Z,8.18
2023-03-23T22:21:38.825Z,8.11
2023-03-23T22:24:08.413Z,8.20
2023-03-23T22:26:45.106Z,7.96
2023-03-23T22:29:16.588Z,8.23
2023-03-23T22:31:57.122Z,8.25
2023-03-23T22:34:26.562Z,8.23
2023-03-23T22:36:56.669Z,8.11
2023-03-23T22:39:32.186Z,8.17
2023-03-23T22:42:03.804Z,8.12
2023-03-23T22:44:33.565Z,8.08
2023-03-23T22:47:02.896Z,8.04
2023-03-23T22:49:32.569Z,8.00
2023-03-23T22:52:08.658Z,7.96
2023-03-23T22:54:38.039Z,7.90
2023-03-23T22:57:09.582Z,7.84
2023-03-23T22:59:39.282Z,7.80
2023-03-23T23:02:08.677Z,7.77
2023-03-23T23:04:37.982Z,7.75
2023-03-23T23:07:12.878Z,7.69
2023-03-23T23:09:43.566Z,7.66
2023-03-23T23:12:16.740Z,7.66
2023-03-23T23:14:52.630Z,7.62
2023-03-23T23:17:27.433Z,7.59
2023-03-23T23:19:57.269Z,7.60
2023-03-23T23:22:26.805Z,7.58
2023-03-23T23:24:56.542Z,7.57
2023-03-23T23:30:08.229Z,7.60
2023-03-23T23:32:38.156Z,7.52
2023-03-23T23:35:14.262Z,7.43
2023-03-23T23:40:20.335Z,7.44
2023-03-23T23:42:58.409Z,7.46
2023-03-23T23:45:33.369Z,7.45
2023-03-23T23:48:03.689Z,7.42
2023-03-23T23:50:42.092Z,7.30
2023-03-23T23:53:12.757Z,7.48
2023-03-23T23:55:42.459Z,7.50
2023-03-23T23:58:13.766Z,7.54
